createdAt,value
2022-10-28T00:00:53.832Z,101334.22
2022-10-28T00:03:22.029Z,101331.63
2022-10-28T00:05:49.898Z,101332.50
2022-10-28T00:08:17.809Z,101329.94
2022-10-28T00:10:45.669Z,101328.00
2022-10-28T00:13:14.971Z,101328.00
2022-10-28T00:15:42.894Z,101325.59
2022-10-28T00:18:11.310Z,101334.44
2022-10-28T00:20:39.197Z,101321.09
2022-10-28T00:23:07.105Z,101318.41
2022-10-28T00:25:34.969Z,101312.31
2022-10-28T00:28:02.882Z,101306.00
2022-10-28T00:30:32.115Z,101307.59
2022-10-28T00:33:00.078Z,101305.00
2022-10-28T00:35:27.939Z,101316.72
2022-10-28T00:37:55.860Z,101309.63
2022-10-28T00:40:23.872Z,101311.44
2022-10-28T00:42:52.103Z,101304.59
2022-10-28T00:45:20.229Z,101312.31
2022-10-28T00:47:55.745Z,101310.50
2022-10-28T00:50:35.234Z,101308.69
2022-10-28T00:53:06.271Z,101307.91
2022-10-28T00:55:35.692Z,101299.84
2022-10-28T00:58:05.009Z,101302.53
2022-10-28T01:00:32.974Z,101300.94
2022-10-28T01:03:02.214Z,101303.53
2022-10-28T01:05:33.284Z,101282.06
2022-10-28T01:08:04.138Z,101306.19
2022-10-28T01:10:44.315Z,101289.03
2022-10-28T01:13:21.486Z,101299.03
2022-10-28T01:15:57.896Z,101306.19
2022-10-28T01:18:34.969Z,101301.69
2022-10-28T01:21:39.189Z,101307.16
2022-10-28T01:24:19.000Z,101304.47
2022-10-28T01:27:10.755Z,101305.22
2022-10-28T01:29:57.450Z,101301.25
2022-10-28T01:32:34.287Z,101300.94
2022-10-28T01:35:13.996Z,101302.66
2022-10-28T01:37:49.675Z,101300.84
2022-10-28T01:40:24.220Z,101290.97
2022-10-28T01:42:58.205Z,101296.34
2022-10-28T01:45:30.010Z,101293.53
2022-10-28T01:48:02.404Z,101295.34
2022-10-28T01:50:37.255Z,101290.84
2022-10-28T01:53:10.274Z,101297.94
2022-10-28T01:55:40.888Z,101287.44
2022-10-28T01:58:12.793Z,101296.22
2022-10-28T02:00:42.381Z,101286.44
2022-10-28T02:03:11.739Z,101294.41
2022-10-28T02:05:43.536Z,101293.41
2022-10-28T02:08:42.499Z,101283.53
2022-10-28T02:11:34.365Z,101272.94
2022-10-28T02:14:13.487Z,101280.97
2022-10-28T02:16:50.112Z,101280.97
2022-10-28T02:19:32.017Z,101282.81
2022-10-28T02:22:12.037Z,101281.31
2022-10-28T02:24:49.896Z,101279.25
2022-10-28T02:27:33.988Z,101275.72
2022-10-28T02:30:07.908Z,101277.44
2022-10-28T02:32:39.143Z,101274.22
2022-10-28T02:35:15.379Z,101268.44
2022-10-28T02:37:46.213Z,101276.56
2022-10-28T02:40:19.609Z,101266.72
2022-10-28T02:42:51.437Z,101280.34
2022-10-28T02:45:23.723Z,101281.06
2022-10-28T02:47:56.160Z,101273.91
2022-10-28T02:50:31.578Z,101277.44
2022-10-28T02:53:02.021Z,101274.88
2022-10-28T02:55:35.564Z,101264.03
2022-10-28T02:58:03.632Z,101269.59
2022-10-28T03:00:31.503Z,101272.06
2022-10-28T03:02:59.551Z,101265.84
2022-10-28T03:05:28.873Z,101279.16
2022-10-28T03:07:56.916Z,101264.88
2022-10-28T03:10:25.415Z,101270.34
2022-10-28T03:12:53.377Z,101262.22
2022-10-28T03:15:21.382Z,101264.03
2022-10-28T03:17:49.266Z,101276.56
2022-10-28T03:20:17.344Z,101273.91
2022-10-28T03:22:46.582Z,101259.53
2022-10-28T03:25:14.744Z,101262.22
2022-10-28T03:27:42.712Z,101269.38
2022-10-28T03:30:11.538Z,101258.66
2022-10-28T03:32:42.800Z,101261.34
2022-10-28T03:35:11.084Z,101228.72
2022-10-28T03:37:41.777Z,101261.47
2022-10-28T03:40:12.573Z,101263.16
2022-10-28T03:42:41.735Z,101263.16
2022-10-28T03:45:10.645Z,101243.22
2022-10-28T03:47:38.710Z,101260.59
2022-10-28T03:50:07.311Z,101254.38
2022-10-28T03:52:35.178Z,101262.41
2022-10-28T03:55:03.028Z,101255.22
2022-10-28T03:57:33.452Z,101249.88
2022-10-28T04:00:01.330Z,101245.38
2022-10-28T04:02:29.322Z,101248.13
2022-10-28T04:04:57.332Z,101241.50
2022-10-28T04:07:25.254Z,101256.94
2022-10-28T04:09:53.116Z,101251.69
2022-10-28T04:12:21.010Z,101247.19
2022-10-28T04:14:50.248Z,101251.56
2022-10-28T04:17:18.676Z,101246.31
2022-10-28T04:19:46.561Z,101229.28
2022-10-28T04:22:14.466Z,101221.31
2022-10-28T04:24:42.305Z,101218.63
2022-10-28T04:27:10.196Z,101223.03
2022-10-28T04:29:38.150Z,101218.53
2022-10-28T04:32:07.446Z,101214.78
2022-10-28T04:34:35.304Z,101207.81
2022-10-28T04:37:03.182Z,101206.09
2022-10-28T04:39:31.612Z,101212.31
2022-10-28T04:41:59.480Z,101209.63
2022-10-28T04:44:27.370Z,101210.59
2022-10-28T04:46:56.803Z,101200.72
2022-10-28T04:49:26.092Z,101204.28
2022-10-28T04:51:54.157Z,101209.72
2022-10-28T04:54:22.016Z,101210.59
2022-10-28T04:56:49.956Z,101196.84
2022-10-28T04:59:17.896Z,101203.53
2022-10-28T05:01:45.906Z,101196.56
2022-10-28T05:04:14.097Z,101199.34
2022-10-28T05:06:43.330Z,101197.31
2022-10-28T05:09:11.445Z,101194.72
2022-10-28T05:11:39.344Z,101193.88
2022-10-28T05:14:07.289Z,101190.41
2022-10-28T05:16:35.169Z,101187.75
2022-10-28T05:19:03.276Z,101195.78
2022-10-28T05:21:31.149Z,101190.31
2022-10-28T05:24:00.367Z,101186.78
2022-10-28T05:26:28.305Z,101179.69
2022-10-28T05:28:56.163Z,101179.69
2022-10-28T05:31:24.041Z,101179.69
2022-10-28T05:33:51.937Z,101181.41
2022-10-28T05:36:19.867Z,101179.69
2022-10-28T05:38:47.757Z,101178.75
2022-10-28T05:41:17.052Z,101184.97
2022-10-28T05:43:44.937Z,101185.06
2022-10-28T05:46:12.822Z,101185.06
2022-10-28T05:48:40.732Z,101178.84
2022-10-28T05:51:08.610Z,101176.19
2022-10-28T05:53:36.557Z,101173.50
2022-10-28T05:56:04.653Z,101178.84
2022-10-28T05:58:34.034Z,101170.03
2022-10-28T06:01:01.901Z,101171.78
2022-10-28T06:03:31.214Z,101168.22
2022-10-28T06:05:59.947Z,101169.94
2022-10-28T06:08:28.347Z,101171.78
2022-10-28T06:10:55.119Z,101169.09
2022-10-28T06:13:23.569Z,101160.19
2022-10-28T06:15:53.926Z,101136.06
2022-10-28T06:18:22.992Z,101143.25
2022-10-28T06:20:52.799Z,101155.81
2022-10-28T06:23:20.701Z,101166.63
2022-10-28T06:25:48.774Z,101171.03
2022-10-28T06:28:16.915Z,101155.91
2022-10-28T06:30:44.795Z,101162.13
2022-10-28T06:33:14.121Z,101162.97
2022-10-28T06:35:42.016Z,101162.13
2022-10-28T06:38:10.076Z,101150.53
2022-10-28T06:40:38.065Z,101146.03
2022-10-28T06:43:07.470Z,101146.88
2022-10-28T06:45:35.572Z,101146.13
2022-10-28T06:48:06.875Z,101134.88
2022-10-28T06:50:37.004Z,101137.25
2022-10-28T06:53:05.098Z,101142.59
2022-10-28T06:55:33.227Z,101138.19
2022-10-28T06:58:02.378Z,101135.50
2022-10-28T07:03:00.032Z,101135.19
2022-10-28T07:05:28.981Z,101126.72
2022-10-28T07:07:58.259Z,101137.66
2022-10-28T07:10:26.151Z,101141.19
2022-10-28T07:12:54.534Z,101116.09
2022-10-28T07:15:22.716Z,101134.00
2022-10-28T07:17:53.767Z,101134.75
2022-10-28T07:20:22.123Z,101146.22
2022-10-28T07:22:49.980Z,101144.25
2022-10-28T07:25:19.261Z,101145.88
2022-10-28T07:27:47.109Z,101145.78
2022-10-28T07:30:15.423Z,101141.28
2022-10-28T07:32:43.303Z,101146.41
2022-10-28T07:35:11.236Z,101134.69
2022-10-28T07:37:39.896Z,101132.75
2022-10-28T07:40:09.003Z,101129.00
2022-10-28T07:42:38.275Z,101093.47
2022-10-28T07:45:07.291Z,101130.06
2022-10-28T07:47:35.219Z,101131.59
2022-10-28T07:50:03.234Z,101125.56
2022-10-28T07:52:31.115Z,101128.78
2022-10-28T07:54:59.056Z,101131.38
2022-10-28T07:57:27.023Z,101133.06
2022-10-28T07:59:56.326Z,101127.69
2022-10-28T08:02:26.070Z,101127.69
2022-10-28T08:04:54.055Z,101137.50
2022-10-28T08:07:21.927Z,101126.63
2022-10-28T08:09:49.895Z,101113.13
2022-10-28T08:12:17.735Z,101114.81
2022-10-28T08:14:45.820Z,101113.22
2022-10-28T08:17:15.163Z,101119.09
2022-10-28T08:19:43.047Z,101105.59
2022-10-28T08:22:10.911Z,101106.47
2022-10-28T08:24:38.775Z,101109.88
2022-10-28T08:27:06.775Z,101103.50
2022-10-28T08:29:34.640Z,101106.09
2022-10-28T08:32:02.526Z,101106.84
2022-10-28T08:34:31.789Z,101104.06
2022-10-28T08:36:59.782Z,101103.19
2022-10-28T08:39:27.745Z,101098.56
2022-10-28T08:42:08.882Z,101097.47
2022-10-28T08:45:18.208Z,101104.56
2022-10-28T08:47:56.827Z,101105.41
2022-10-28T08:50:31.798Z,101106.16
2022-10-28T08:53:03.935Z,101044.88
2022-10-28T08:55:36.135Z,101102.41
2022-10-28T08:58:08.882Z,101107.78
2022-10-28T09:00:37.843Z,101104.97
2022-10-28T09:03:17.063Z,101111.19
2022-10-28T09:05:50.048Z,101104.00
2022-10-28T09:08:24.090Z,101104.81
2022-10-28T09:11:04.826Z,101108.38
2022-10-28T09:13:44.109Z,101104.97
2022-10-28T09:16:19.830Z,101114.50
2022-10-28T09:18:54.066Z,101119.03
2022-10-28T09:21:31.686Z,101103.13
2022-10-28T09:24:04.297Z,101121.69
2022-10-28T09:26:48.882Z,101119.03
2022-10-28T09:29:32.715Z,101117.06
2022-10-28T09:32:11.258Z,101123.31
2022-10-28T09:34:45.800Z,101119.75
2022-10-28T09:37:18.936Z,101118.88
2022-10-28T09:39:50.697Z,101117.06
2022-10-28T09:42:25.268Z,101099.81
2022-10-28T09:44:57.306Z,101122.22
2022-10-28T09:47:30.447Z,101118.53
2022-10-28T09:50:02.715Z,101114.03
2022-10-28T09:52:35.835Z,101114.88
2022-10-28T09:55:09.852Z,101105.88
2022-10-28T09:57:37.795Z,101100.50
2022-10-28T10:00:07.028Z,101100.50
2022-10-28T10:02:40.458Z,101084.63
2022-10-28T10:05:16.909Z,101082.44
2022-10-28T10:07:53.134Z,101072.66
2022-10-28T10:10:24.942Z,101013.63
2022-10-28T10:12:57.740Z,101045.22
2022-10-28T10:15:31.631Z,101047.75
2022-10-28T10:18:01.875Z,101054.50
2022-10-28T10:20:41.028Z,101040.44
2022-10-28T10:23:23.836Z,101046.09
2022-10-28T10:25:56.627Z,101048.91
2022-10-28T10:28:26.534Z,101052.31
2022-10-28T10:30:56.271Z,101039.03
2022-10-28T10:33:28.354Z,101047.59
2022-10-28T10:36:00.453Z,101044.91
2022-10-28T10:38:30.852Z,101048.41
2022-10-28T10:40:59.183Z,101055.50
2022-10-28T10:43:32.527Z,101051.59
2022-10-28T10:46:03.102Z,101049.91
2022-10-28T10:48:32.418Z,101001.75
2022-10-28T10:51:07.127Z,101052.34
2022-10-28T10:53:37.363Z,101045.16
2022-10-28T10:56:08.414Z,101038.78
2022-10-28T10:58:40.114Z,101030.63
2022-10-28T11:01:09.670Z,101026.34
2022-10-28T11:03:41.071Z,101034.16
2022-10-28T11:06:23.477Z,101023.31
2022-10-28T11:08:59.289Z,101019.75
2022-10-28T11:11:34.447Z,101015.13
2022-10-28T11:14:08.643Z,101014.16
2022-10-28T11:16:48.909Z,101005.09
2022-10-28T11:19:22.269Z,101001.59
2022-10-28T11:22:14.121Z,100995.22
2022-10-28T11:25:06.567Z,100989.97
2022-10-28T11:27:53.820Z,100978.25
2022-10-28T11:30:36.083Z,100972.88
2022-10-28T11:33:28.802Z,100977.41
2022-10-28T11:36:04.867Z,100976.31
2022-10-28T11:38:48.839Z,100977.91
2022-10-28T11:41:31.594Z,100988.66
2022-10-28T11:44:04.965Z,100987.06
2022-10-28T11:46:43.401Z,100981.41
2022-10-28T11:49:59.092Z,100985.09
2022-10-28T11:52:36.775Z,100971.19
2022-10-28T11:55:20.234Z,100970.09
2022-10-28T11:58:03.023Z,100966.41
2022-10-28T12:00:54.862Z,100968.25
2022-10-28T12:03:44.352Z,100962.88
2022-10-28T12:06:20.594Z,100959.44
2022-10-28T12:09:03.841Z,100962.75
2022-10-28T12:11:47.696Z,100952.88
2022-10-28T12:14:23.541Z,100944.81
2022-10-28T12:16:58.355Z,100938.56
2022-10-28T12:19:30.904Z,100940.16
2022-10-28T12:22:05.891Z,100932.09
2022-10-28T12:24:36.791Z,100932.97
2022-10-28T12:27:17.007Z,100933.84
2022-10-28T12:29:51.537Z,100939.22
2022-10-28T12:32:23.504Z,100948.97
2022-10-28T12:34:59.011Z,100942.78
2022-10-28T12:37:32.327Z,100941.78
2022-10-28T12:40:06.928Z,100932.84
2022-10-28T12:42:40.731Z,100934.44
2022-10-28T12:45:16.462Z,100941.53
2022-10-28T12:47:50.185Z,100937.88
2022-10-28T12:50:26.723Z,100935.19
2022-10-28T12:53:02.876Z,100940.31
2022-10-28T12:55:36.535Z,100941.16
2022-10-28T12:58:11.596Z,100937.63
2022-10-28T13:00:45.418Z,100932.50
2022-10-28T13:03:14.860Z,100922.34
2022-10-28T13:05:46.311Z,100915.16
2022-10-28T13:08:31.349Z,100913.19
2022-10-28T13:11:40.077Z,100898.19
2022-10-28T13:14:21.608Z,100900.88
2022-10-28T13:17:16.939Z,100897.31
2022-10-28T13:20:02.406Z,100896.50
2022-10-28T13:22:46.267Z,100901.88
2022-10-28T13:25:39.224Z,100901.88
2022-10-28T13:28:08.651Z,100898.69
2022-10-28T13:30:36.562Z,100896.50
2022-10-28T13:33:08.167Z,100893.53
2022-10-28T13:35:37.960Z,100884.16
2022-10-28T13:38:13.004Z,100878.25
2022-10-28T13:41:25.193Z,100874.72
2022-10-28T13:44:01.700Z,100875.97
2022-10-28T13:47:01.612Z,100880.38
2022-10-28T13:49:31.559Z,100878.66
2022-10-28T13:52:04.724Z,100876.34
2022-10-28T13:54:34.434Z,100878.38
2022-10-28T13:57:07.884Z,100884.88
2022-10-28T13:59:51.455Z,100885.84
2022-10-28T14:02:40.223Z,100878.78
2022-10-28T14:05:11.854Z,100891.34
2022-10-28T14:07:51.801Z,100883.28
2022-10-28T14:10:26.167Z,100881.56
2022-10-28T14:12:57.133Z,100896.72
2022-10-28T14:15:32.104Z,100888.91
2022-10-28T14:18:16.034Z,100883.69
2022-10-28T14:21:00.800Z,100899.28
2022-10-28T14:24:05.789Z,100901.25
2022-10-28T14:26:53.779Z,100895.25
2022-10-28T14:29:29.657Z,100903.31
2022-10-28T14:31:57.602Z,100912.22
2022-10-28T14:34:42.932Z,100897.84
2022-10-28T14:37:33.374Z,100901.47
2022-10-28T14:40:20.183Z,100874.25
2022-10-28T14:42:58.070Z,100867.41
2022-10-28T14:45:35.760Z,100874.84
2022-10-28T14:48:27.614Z,100875.81
2022-10-28T14:50:57.116Z,100866.66
2022-10-28T14:53:30.560Z,100878.75
2022-10-28T14:56:02.092Z,100877.28
2022-10-28T14:58:36.198Z,100867.41
2022-10-28T15:01:24.045Z,100870.94
2022-10-28T15:03:55.106Z,100873.00
2022-10-28T15:06:29.251Z,100867.63
2022-10-28T15:09:05.437Z,100873.00
2022-10-28T15:11:34.365Z,100867.03
2022-10-28T15:14:15.965Z,100865.94
2022-10-28T15:16:48.895Z,100873.38
2022-10-28T15:19:21.022Z,100876.06
2022-10-28T15:22:02.437Z,100872.53
2022-10-28T15:24:32.197Z,100860.19
2022-10-28T15:27:00.353Z,100869.34
2022-10-28T15:29:28.413Z,100855.94
2022-10-28T15:32:27.257Z,100836.16
2022-10-28T15:34:55.241Z,100851.31
2022-10-28T15:37:25.825Z,100846.75
2022-10-28T15:40:12.879Z,100868.75
2022-10-28T15:42:43.307Z,100839.47
2022-10-28T15:45:18.974Z,100860.72
2022-10-28T15:47:48.335Z,100845.56
2022-10-28T15:50:29.644Z,100843.97
2022-10-28T15:53:22.123Z,100853.75
2022-10-28T15:56:10.428Z,100852.13
2022-10-28T15:58:40.928Z,100858.50
2022-10-28T16:01:11.533Z,100852.28
2022-10-28T16:03:44.803Z,100854.09
2022-10-28T16:06:25.920Z,100845.19
2022-10-28T16:09:07.090Z,100844.34
2022-10-28T16:11:39.437Z,100836.53
2022-10-28T16:14:24.566Z,100833.72
2022-10-28T16:16:52.777Z,100833.13
2022-10-28T16:19:28.194Z,100824.94
2022-10-28T16:21:56.824Z,100835.91
2022-10-28T16:24:24.682Z,100834.22
2022-10-28T16:26:53.959Z,100839.59
2022-10-28T16:29:21.854Z,100827.28
2022-10-28T16:31:52.777Z,100822.63
2022-10-28T16:34:20.727Z,100829.94
2022-10-28T16:36:48.663Z,100824.59
2022-10-28T16:39:16.634Z,100822.00
2022-10-28T16:41:44.555Z,100812.22
2022-10-28T16:44:18.633Z,100810.31
2022-10-28T16:46:46.648Z,100809.81
2022-10-28T16:49:14.987Z,100821.28
2022-10-28T16:51:44.820Z,100825.66
2022-10-28T16:54:12.729Z,100825.66
2022-10-28T16:56:40.602Z,100817.72
2022-10-28T16:59:08.514Z,100809.69
2022-10-28T17:01:37.871Z,100815.78
2022-10-28T17:04:06.336Z,100808.81
2022-10-28T17:06:34.228Z,100810.66
2022-10-28T17:09:03.634Z,100814.31
2022-10-28T17:14:04.758Z,100797.50
2022-10-28T17:16:32.671Z,100799.31
2022-10-28T17:19:01.942Z,100796.50
2022-10-28T17:21:29.867Z,100799.19
2022-10-28T17:23:57.789Z,100798.31
2022-10-28T17:26:25.634Z,100800.28
2022-10-28T17:28:54.086Z,100800.28
2022-10-28T17:31:24.909Z,100798.59
2022-10-28T17:33:55.493Z,100801.28
2022-10-28T17:36:24.865Z,100813.69
2022-10-28T17:38:52.723Z,100795.91
2022-10-28T17:41:20.911Z,100790.53
2022-10-28T17:43:48.977Z,100794.19
2022-10-28T17:46:16.838Z,100795.06
2022-10-28T17:48:44.757Z,100798.59
2022-10-28T17:51:12.862Z,100788.81
2022-10-28T17:53:42.137Z,100791.50
2022-10-28T17:56:10.448Z,100791.66
2022-10-28T17:58:38.379Z,100785.41
2022-10-28T18:01:07.872Z,100775.28
2022-10-28T18:03:39.011Z,100790.06
2022-10-28T18:06:09.255Z,100790.88
2022-10-28T18:08:38.933Z,100794.66
2022-10-28T18:11:10.365Z,100802.63
2022-10-28T18:13:39.974Z,100790.78
2022-10-28T18:16:09.644Z,100786.25
2022-10-28T18:18:42.044Z,100791.25
2022-10-28T18:21:11.110Z,100801.13
2022-10-28T18:23:39.252Z,100784.69
2022-10-28T18:26:11.518Z,100777.84
2022-10-28T18:28:39.972Z,100790.41
2022-10-28T18:31:10.722Z,100786.75
2022-10-28T18:33:39.202Z,100762.78
2022-10-28T18:36:10.566Z,100787.63
2022-10-28T18:38:38.568Z,100780.75
2022-10-28T18:41:12.770Z,100767.72
2022-10-28T18:43:41.527Z,100778.81
2022-10-28T18:46:09.608Z,100774.53
2022-10-28T18:48:37.760Z,100774.44
2022-10-28T18:51:09.527Z,100753.69
2022-10-28T18:53:39.160Z,100753.81
2022-10-28T18:56:08.920Z,100755.53
2022-10-28T18:58:38.364Z,100760.41
2022-10-28T19:01:10.245Z,100767.34
2022-10-28T19:03:39.137Z,100770.03
2022-10-28T19:06:09.314Z,100781.63
2022-10-28T19:08:38.422Z,100776.25
2022-10-28T19:11:07.493Z,100786.13
2022-10-28T19:13:39.101Z,100768.34
2022-10-28T19:16:10.326Z,100772.00
2022-10-28T19:18:38.554Z,100766.63
2022-10-28T19:21:10.645Z,100771.03
2022-10-28T19:23:38.949Z,100763.91
2022-10-28T19:26:08.703Z,100778.22
2022-10-28T19:28:42.087Z,100781.88
2022-10-28T19:31:11.818Z,100782.72
2022-10-28T19:33:40.085Z,100777.34
2022-10-28T19:36:11.620Z,100790.63
2022-10-28T19:38:39.784Z,100771.25
2022-10-28T19:41:09.528Z,100777.22
2022-10-28T19:43:38.273Z,100772.13
2022-10-28T19:46:11.449Z,100774.53
2022-10-28T19:48:40.521Z,100766.88
2022-10-28T19:51:09.196Z,100771.13
2022-10-28T19:53:37.110Z,100772.00
2022-10-28T19:56:06.069Z,100769.16
2022-10-28T19:58:35.059Z,100770.16
2022-10-28T20:01:04.692Z,100776.38
2022-10-28T20:03:35.566Z,100759.28
2022-10-28T20:06:07.020Z,100761.25
2022-10-28T20:08:36.587Z,100763.09
2022-10-28T20:11:06.347Z,100751.38
2022-10-28T20:13:35.242Z,100750.53
2022-10-28T20:16:04.641Z,100757.72
2022-10-28T20:18:35.042Z,100747.84
2022-10-28T20:21:07.796Z,100732.56
2022-10-28T20:23:35.912Z,100756.84
2022-10-28T20:26:04.766Z,100751.47
2022-10-28T20:28:32.855Z,100746.38
2022-10-28T20:31:02.228Z,100747.84
2022-10-28T20:33:31.149Z,100742.47
2022-10-28T20:36:00.534Z,100744.19
2022-10-28T20:38:29.085Z,100733.56
2022-10-28T20:40:58.385Z,100738.06
2022-10-28T20:43:29.489Z,100728.06
2022-10-28T20:45:59.741Z,100740.66
2022-10-28T20:48:28.692Z,100739.78
2022-10-28T20:50:58.272Z,100724.78
2022-10-28T20:53:28.862Z,100722.72
2022-10-28T20:55:58.140Z,100701.34
2022-10-28T20:58:31.546Z,100711.38
2022-10-28T21:01:03.629Z,100715.78
2022-10-28T21:03:31.708Z,100719.44
2022-10-28T21:05:59.881Z,100717.69
2022-10-28T21:08:29.199Z,100720.16
2022-10-28T21:10:57.071Z,100709.56
2022-10-28T21:13:24.994Z,100709.56
2022-10-28T21:15:56.543Z,100694.41
2022-10-28T21:18:26.548Z,100704.19
2022-10-28T21:20:56.913Z,100697.00
2022-10-28T21:23:24.932Z,100688.09
2022-10-28T21:25:59.762Z,100686.97
2022-10-28T21:28:30.087Z,100687.09
2022-10-28T21:31:01.606Z,100685.25
2022-10-28T21:33:30.400Z,100680.75
2022-10-28T21:35:59.043Z,100675.53
2022-10-28T21:38:28.309Z,100683.44
2022-10-28T21:41:02.104Z,100686.00
2022-10-28T21:43:31.114Z,100673.81
2022-10-28T21:45:59.490Z,100676.34
2022-10-28T21:48:29.171Z,100679.91
2022-10-28T21:50:58.952Z,100661.75
2022-10-28T21:53:27.830Z,100679.91
2022-10-28T21:56:04.782Z,100679.78
2022-10-28T21:58:32.943Z,100656.84
2022-10-28T22:01:05.447Z,100661.00
2022-10-28T22:03:33.468Z,100659.28
2022-10-28T22:06:01.430Z,100650.28
2022-10-28T22:08:29.542Z,100639.53
2022-10-28T22:11:02.212Z,100628.66
2022-10-28T22:13:31.772Z,100626.00
2022-10-28T22:16:00.612Z,100634.91
2022-10-28T22:18:29.035Z,100633.06
2022-10-28T22:20:57.147Z,100630.38
2022-10-28T22:23:25.028Z,100629.53
2022-10-28T22:25:52.896Z,100622.34
2022-10-28T22:28:20.759Z,100620.47
2022-10-28T22:30:50.003Z,100611.00
2022-10-28T22:33:17.982Z,100603.66
2022-10-28T22:35:45.879Z,100610.63
2022-10-28T22:38:13.770Z,100618.81
2022-10-28T22:40:41.748Z,100612.31
2022-10-28T22:43:09.613Z,100623.16
2022-10-28T22:45:37.456Z,100614.28
2022-10-28T22:48:07.307Z,100597.81
2022-10-28T22:50:35.183Z,100612.56
2022-10-28T22:53:03.031Z,100595.50
2022-10-28T22:55:30.980Z,100583.91
2022-10-28T22:57:59.114Z,100588.41
2022-10-28T23:00:27.111Z,100581.34
2022-10-28T23:02:55.405Z,100570.59
2022-10-28T23:05:25.056Z,100566.97
2022-10-28T23:07:54.239Z,100563.41
2022-10-28T23:10:22.289Z,100554.66
2022-10-28T23:12:56.299Z,100558.06
2022-10-28T23:15:24.794Z,100569.78
2022-10-28T23:17:53.968Z,100567.09
2022-10-28T23:20:25.254Z,100562.69
2022-10-28T23:22:57.273Z,100559.16
2022-10-28T23:25:25.169Z,100548.44
2022-10-28T23:27:53.169Z,100549.28
2022-10-28T23:30:21.354Z,100526.72
2022-10-28T23:32:49.276Z,100534.03
2022-10-28T23:35:18.032Z,100537.59
2022-10-28T23:37:47.329Z,100527.09
2022-10-28T23:40:15.328Z,100527.97
2022-10-28T23:42:43.300Z,100518.91
2022-10-28T23:45:11.459Z,100515.50
2022-10-28T23:47:39.407Z,100515.38
2022-10-28T23:50:10.921Z,100515.38
2022-10-28T23:52:38.957Z,100506.50
2022-10-28T23:55:09.627Z,100501.84
2022-10-28T23:57:37.578Z,100495.75
